Pangborn Memorial Airport Wenatchee US
ICAO: KEAT
IATA: EAT
Category: Medium
Scheduled Services: No

Elevation: 1249 ft
TransAlt. 18000 ft.

Airport Communications:
ASOS:119.925
SEATTLE CNTR:126.1
SEATTLE RDO:122.6
CTAF/UNICOM:123

KEAT Zoom In..

If you have problems with the map follow the link
https://www.worldairports.se/pages/airport.php?
ICAO=KEAT

Runways:

(A) RW 07 length 4460 ft width 75 ft
---- / hdg 71

(B) RW 12 length 5700 ft width 150 ft
ILS 109.35 / hdg 116

(C) RW 25 length 4460 ft width 75 ft
---- / hdg 251

(D) RW 30 length 5700 ft width 150 ft
---- / hdg 296

Location; KEAT
Day. 29 / Time. 16.07 Zulu
* Altimeter: 30.19
* Temperature: 01° c. 33.8°f.
* Wind from: 000° Speed 00 kn.
Dewpoint: -01° c.
Visibility: 8 Statute Miles.
Clouds: Few 300 ft.
Clouds: Overcast 900 ft.

KEAT 291607Z AUTO 00000KT 8SM FEW003 OVC009 01/M01 A3019 RMK AO2 T00061006


Wind - Calm.

 
 
jpsmedia worldairports.se 2020   terms of use